Time;durP1;ratioP1;P1;durP2;ratioP2;P2;SDS_P1;SDS_P2;PMS_P1;PMS_P2;Temp;Humidity;BMP_temperature;BMP_pressure;BME280_temperature;BME280_humidity;BME280_pressure;Samples;Min_cycle;Max_cycle;Signal;HPM_P1;HPM_P2
2024/01/04 00:02:30;;;;;;;6.77;3.30;;;;;;;7.41;100.00;98181.97;4961214;57;1136656;-83
2024/01/04 00:07:36;;;;;;;9.63;3.42;;;;;;;7.39;100.00;98179.16;4948514;58;1136679;-80
2024/01/04 00:12:42;;;;;;;6.50;3.20;;;;;;;7.37;100.00;98183.75;4972826;57;1136687;-80
2024/01/04 00:17:47;;;;;;;10.17;4.10;;;;;;;7.38;100.00;98184.08;4963369;57;1136719;-81
2024/01/04 00:22:53;;;;;;;10.48;4.58;;;;;;;7.39;100.00;98184.42;4923383;58;1138993;-80
2024/01/04 00:27:58;;;;;;;9.40;3.23;;;;;;;7.39;100.00;98180.48;4961095;56;1138844;-82
2024/01/04 00:33:05;;;;;;;13.67;3.80;;;;;;;7.38;100.00;98180.97;4979358;57;1136590;-80
2024/01/04 00:38:10;;;;;;;10.00;3.75;;;;;;;7.37;100.00;98176.69;4944764;57;1138438;-83
2024/01/04 00:43:16;;;;;;;8.60;3.40;;;;;;;7.36;100.00;98175.52;4957691;57;1138673;-81
2024/01/04 00:48:21;;;;;;;10.25;3.67;;;;;;;7.36;100.00;98173.72;4977297;57;1136763;-80
2024/01/04 00:53:27;;;;;;;8.10;3.17;;;;;;;7.36;100.00;98176.34;4978781;57;1138757;-83
2024/01/04 00:58:33;;;;;;;6.43;3.00;;;;;;;7.34;100.00;98169.59;4913941;57;1136888;-83
2024/01/04 01:03:38;;;;;;;7.27;3.57;;;;;;;7.34;100.00;98166.96;4952440;57;1136717;-82
2024/01/04 01:08:44;;;;;;;9.20;3.00;;;;;;;7.32;100.00;98161.06;4941056;57;1136604;-80
2024/01/04 01:13:50;;;;;;;9.23;3.13;;;;;;;7.33;100.00;98164.03;4973142;57;1137072;-80
2024/01/04 01:18:55;;;;;;;8.80;3.53;;;;;;;7.31;100.00;98164.18;4970690;55;1136948;-83
2024/01/04 01:24:01;;;;;;;5.03;2.22;;;;;;;7.32;100.00;98166.32;4955940;57;1139063;-81
2024/01/04 01:29:07;;;;;;;6.67;2.98;;;;;;;7.28;100.00;98169.74;4940010;56;1136681;-80
2024/01/04 01:34:13;;;;;;;3.02;2.25;;;;;;;7.27;100.00;98164.64;4891985;58;1136623;-80
2024/01/04 01:39:18;;;;;;;6.37;3.30;;;;;;;7.27;100.00;98165.95;4901996;58;1137188;-82
2024/01/04 01:44:24;;;;;;;11.83;2.93;;;;;;;7.25;100.00;98171.36;4995657;58;1136591;-81
2024/01/04 01:49:29;;;;;;;6.63;2.80;;;;;;;7.25;100.00;98166.11;4953648;57;1138426;-82
2024/01/04 01:54:35;;;;;;;8.07;2.50;;;;;;;7.25;100.00;98171.85;4896699;57;1136557;-82
2024/01/04 01:59:41;;;;;;;9.70;3.10;;;;;;;7.25;100.00;98170.05;4932849;57;1136734;-83
2024/01/04 02:04:47;;;;;;;5.20;2.57;;;;;;;7.26;100.00;98167.75;4959980;57;1136557;-83
2024/01/04 02:09:52;;;;;;;7.20;3.47;;;;;;;7.25;100.00;98164.79;4933429;57;1136970;-79
2024/01/04 02:14:58;;;;;;;6.30;2.50;;;;;;;7.27;100.00;98168.09;4967375;57;1136435;-81
2024/01/04 02:20:04;;;;;;;5.53;2.90;;;;;;;7.27;100.00;98164.64;4933327;56;1136760;-83
2024/01/04 02:25:10;;;;;;;4.53;2.60;;;;;;;7.24;100.00;98160.51;4930691;58;1137639;-82
2024/01/04 02:30:15;;;;;;;8.80;2.98;;;;;;;7.23;100.00;98157.55;4995133;57;1136678;-80
2024/01/04 02:35:21;;;;;;;6.13;2.87;;;;;;;7.23;100.00;98162.80;4907810;57;1136905;-80
2024/01/04 02:40:28;;;;;;;5.00;2.37;;;;;;;7.23;100.00;98162.80;4934096;57;1137063;-80
2024/01/04 02:45:33;;;;;;;6.80;2.33;;;;;;;7.24;100.00;98167.58;4988992;56;1136663;-80
2024/01/04 02:50:39;;;;;;;9.87;2.53;;;;;;;7.22;100.00;98164.27;4948545;57;1136531;-81
2024/01/04 02:55:44;;;;;;;5.10;3.00;;;;;;;7.20;100.00;98164.42;4921543;58;1136574;-82
2024/01/04 03:00:50;;;;;;;8.73;3.07;;;;;;;7.19;100.00;98160.62;4956539;57;1136900;-79
2024/01/04 03:05:56;;;;;;;7.90;2.50;;;;;;;7.17;100.00;98158.67;4914951;56;1136734;-81
2024/01/04 03:11:01;;;;;;;4.03;2.37;;;;;;;7.16;100.00;98156.53;4958977;57;1136528;-81
2024/01/04 03:16:07;;;;;;;8.03;2.53;;;;;;;7.14;100.00;98152.41;4954985;56;1136631;-80
2024/01/04 03:21:13;;;;;;;8.58;2.92;;;;;;;7.15;100.00;98154.06;4943015;56;1136769;-80
2024/01/04 03:26:19;;;;;;;5.90;2.30;;;;;;;7.16;100.00;98158.34;4910402;56;1136601;-83
2024/01/04 03:31:24;;;;;;;39.60;17.97;;;;;;;7.17;100.00;98152.92;4962489;56;1137261;-81
2024/01/04 03:36:30;;;;;;;12.30;5.60;;;;;;;7.20;100.00;98153.91;4950147;56;1141057;-82
2024/01/04 03:41:35;;;;;;;20.97;6.45;;;;;;;7.24;100.00;98155.73;4929767;56;1138891;-82
2024/01/04 03:46:41;;;;;;;29.80;10.80;;;;;;;7.24;100.00;98155.73;4923634;56;1138946;-80
2024/01/04 03:51:47;;;;;;;22.27;6.80;;;;;;;7.26;100.00;98149.84;4980191;57;1141070;-79
2024/01/04 03:56:53;;;;;;;8.17;2.27;;;;;;;7.24;100.00;98155.25;4909493;57;1138537;-81
2024/01/04 04:01:59;;;;;;;11.47;3.50;;;;;;;7.27;100.00;98151.49;4945355;57;1136701;-81
2024/01/04 04:07:05;;;;;;;10.37;2.63;;;;;;;7.27;100.00;98157.58;4936901;57;1138970;-80
2024/01/04 04:12:10;;;;;;;7.83;3.85;;;;;;;7.23;100.00;98156.23;4946045;56;1138960;-81
2024/01/04 04:17:24;;;;;;;7.37;3.02;;;;;;;7.20;100.00;98156.53;4930289;57;1136959;-80
2024/01/04 04:22:28;;;;;;;15.88;4.00;;;;;;;7.18;100.00;98154.55;4935076;55;1136878;-81
2024/01/04 04:27:34;;;;;;;12.80;3.47;;;;;;;7.19;100.00;98155.38;4937006;57;1138847;-80
2024/01/04 04:32:39;;;;;;;10.50;3.23;;;;;;;7.17;100.00;98158.19;4975418;57;1138874;-81
2024/01/04 04:37:45;;;;;;;7.70;2.93;;;;;;;7.17;100.00;98164.75;4944976;55;1141101;-82
2024/01/04 04:42:50;;;;;;;13.72;3.30;;;;;;;7.18;100.00;98156.37;4964060;57;1136839;-82
2024/01/04 04:47:56;;;;;;;8.27;3.37;;;;;;;7.18;100.00;98162.44;4937148;55;1138817;-81
2024/01/04 04:53:01;;;;;;;10.87;2.90;;;;;;;7.17;100.00;98166.56;4929014;56;1136808;-83
2024/01/04 04:58:07;;;;;;;4.70;1.87;;;;;;;7.18;100.00;98169.52;4926730;56;1138842;-80
2024/01/04 05:03:13;;;;;;;4.08;2.02;;;;;;;7.19;100.00;98171.14;4886953;56;1136523;-80
2024/01/04 05:08:18;;;;;;;5.73;2.90;;;;;;;7.20;100.00;98182.83;4936293;57;1137039;-81
2024/01/04 05:13:24;;;;;;;5.60;1.87;;;;;;;7.21;100.00;98180.53;4914781;57;1137700;-80
2024/01/04 05:18:29;;;;;;;8.60;3.80;;;;;;;7.20;100.00;98177.56;4911539;57;1136735;-84
2024/01/04 05:23:35;;;;;;;5.07;2.00;;;;;;;7.21;100.00;98179.22;4987353;56;1136695;-74
2024/01/04 05:28:40;;;;;;;10.60;3.37;;;;;;;7.22;100.00;98183.50;4911386;56;1137264;-77
2024/01/04 05:33:47;;;;;;;7.10;2.63;;;;;;;7.22;100.00;98178.23;4987638;57;1139194;-75
2024/01/04 05:38:53;;;;;;;8.17;3.00;;;;;;;7.24;100.00;98186.80;4828613;58;1136927;-74
2024/01/04 05:43:58;;;;;;;7.73;3.37;;;;;;;7.24;100.00;98182.86;4933705;57;1136890;-75
2024/01/04 05:49:04;;;;;;;4.60;2.10;;;;;;;7.24;100.00;98192.55;4986252;57;1136700;-73
2024/01/04 05:54:09;;;;;;;4.63;2.50;;;;;;;7.25;100.00;98193.71;5011143;56;1136832;-75
2024/01/04 05:59:15;;;;;;;9.60;2.40;;;;;;;7.27;100.00;98198.33;4997532;54;1136834;-75
2024/01/04 06:04:21;;;;;;;6.05;2.10;;;;;;;7.29;100.00;98205.58;4956072;55;1138073;-73
2024/01/04 06:09:27;;;;;;;4.53;1.47;;;;;;;7.28;100.00;98206.55;4875539;58;1137053;-76
2024/01/04 06:14:32;;;;;;;4.63;2.33;;;;;;;7.30;100.00;98212.97;4921304;56;1136633;-74
2024/01/04 06:19:38;;;;;;;7.27;3.40;;;;;;;7.29;100.00;98221.35;4905797;57;1136789;-74
2024/01/04 06:24:46;;;;;;;5.97;1.67;;;;;;;7.29;100.00;98228.41;5003093;57;1136775;-75
2024/01/04 06:29:50;;;;;;;3.33;1.87;;;;;;;7.27;100.00;98225.11;4988598;55;1137139;-75
2024/01/04 06:34:56;;;;;;;9.20;2.90;;;;;;;7.28;100.00;98231.53;4896444;56;1136644;-75
2024/01/04 06:40:05;;;;;;;2.13;1.60;;;;;;;7.29;100.00;98227.09;4937360;57;1136936;-75
2024/01/04 06:45:09;;;;;;;3.53;1.67;;;;;;;7.29;100.00;98227.92;4950757;57;1136843;-76
2024/01/04 06:50:15;;;;;;;5.50;1.97;;;;;;;7.30;100.00;98234.83;4897321;57;1136708;-72
2024/01/04 06:55:20;;;;;;;5.60;1.70;;;;;;;7.27;100.00;98230.36;4917612;57;1136935;-77
2024/01/04 07:00:26;;;;;;;2.17;1.83;;;;;;;7.27;100.00;98233.82;4912680;56;1136760;-73
2024/01/04 07:05:31;;;;;;;6.77;1.93;;;;;;;7.28;100.00;98233.33;4945486;57;1136544;-74
2024/01/04 07:10:38;;;;;;;5.70;3.12;;;;;;;7.26;100.00;98237.91;5045520;57;1137111;-74
2024/01/04 07:15:44;;;;;;;10.47;2.97;;;;;;;7.25;100.00;98238.41;4975248;57;1136874;-78
2024/01/04 07:20:49;;;;;;;4.13;1.60;;;;;;;7.24;100.00;98245.95;4958808;57;1139075;-77
2024/01/04 07:25:55;;;;;;;8.60;2.67;;;;;;;7.24;100.00;98246.44;4975241;56;1136816;-75
2024/01/04 07:31:00;;;;;;;2.80;1.70;;;;;;;7.22;100.00;98243.13;4965791;57;1136836;-71
2024/01/04 07:36:06;;;;;;;3.90;2.00;;;;;;;7.20;100.00;98239.83;5001293;56;1136829;-75
2024/01/04 07:41:12;;;;;;;6.47;3.47;;;;;;;7.17;100.00;98238.36;4967204;56;1137174;-74
2024/01/04 07:46:18;;;;;;;3.67;2.53;;;;;;;7.15;100.00;98240.31;4972541;56;1136553;-72
2024/01/04 07:51:23;;;;;;;3.17;2.22;;;;;;;7.13;100.00;98244.89;4928061;57;1136708;-83
2024/01/04 07:56:39;;;;;;;8.77;2.00;;;;;;;7.14;100.00;98247.86;4736299;59;1136874;-77
2024/01/04 08:01:44;;;;;;;5.17;2.50;;;;;;;7.13;100.00;98242.27;4757624;59;1136710;-74
2024/01/04 08:06:50;;;;;;;8.53;4.67;;;;;;;7.14;100.00;98243.91;4729904;59;1136915;-79
2024/01/04 08:11:55;;;;;;;2.90;2.23;;;;;;;7.12;100.00;98248.98;4719405;59;1137053;-76
2024/01/04 08:17:01;;;;;;;6.17;3.80;;;;;;;7.10;100.00;98247.81;4722570;59;1137109;-78
2024/01/04 08:22:07;;;;;;;3.40;2.57;;;;;;;7.11;100.00;98256.05;4743467;59;1136816;-76
2024/01/04 08:27:13;;;;;;;2.03;1.83;;;;;;;7.11;100.00;98249.95;4820886;57;1136877;-78
2024/01/04 08:32:20;;;;;;;3.65;2.65;;;;;;;7.12;100.00;98251.12;4927281;57;1136708;-80
2024/01/04 08:37:25;;;;;;;3.08;1.57;;;;;;;7.12;100.00;98262.95;4922438;56;1136853;-80
2024/01/04 08:42:31;;;;;;;4.77;1.53;;;;;;;7.09;100.00;98255.36;5003340;56;1136684;-80
2024/01/04 08:47:37;;;;;;;3.10;1.30;;;;;;;7.06;100.00;98259.61;4993703;55;1136820;-82
2024/01/04 08:52:42;;;;;;;4.53;4.10;;;;;;;7.02;100.00;98253.03;4956510;56;1136856;-79
2024/01/04 08:57:48;;;;;;;5.35;1.75;;;;;;;7.03;100.00;98260.73;4949610;56;1137028;-80
2024/01/04 09:02:54;;;;;;;2.63;1.53;;;;;;;7.08;100.00;98265.54;4995253;55;1136824;-82
2024/01/04 09:07:59;;;;;;;4.22;2.45;;;;;;;7.10;100.00;98265.39;5019162;55;1136776;-79
2024/01/04 09:13:05;;;;;;;3.90;2.40;;;;;;;7.12;100.00;98270.02;4981603;57;1136876;-80
2024/01/04 09:18:11;;;;;;;1.87;1.60;;;;;;;7.14;100.00;98269.38;4879674;57;1137115;-80
2024/01/04 09:23:16;;;;;;;100.00;27.42;;;;;;;7.17;100.00;98278.28;4918372;57;1136655;-82
2024/01/04 09:28:23;;;;;;;149.70;32.23;;;;;;;7.19;100.00;98283.69;4923258;57;1143844;-80
2024/01/04 09:33:29;;;;;;;3.00;1.60;;;;;;;7.21;100.00;98286.17;4947952;55;1142680;-76
2024/01/04 09:38:35;;;;;;;6.73;2.17;;;;;;;7.22;100.00;98289.14;4994385;56;1136609;-74
2024/01/04 09:43:41;;;;;;;1.47;1.37;;;;;;;7.23;100.00;98292.11;4960952;57;1136346;-73
2024/01/04 09:48:51;;;;;;;3.33;2.50;;;;;;;7.25;100.00;98289.67;4885309;57;1136864;-82
2024/01/04 09:53:57;;;;;;;31.27;7.97;;;;;;;7.26;100.00;98298.38;5001229;56;1136516;-75
2024/01/04 09:59:02;;;;;;;2.60;1.70;;;;;;;7.26;100.00;98297.06;4908170;57;1138802;-79
2024/01/04 10:04:13;;;;;;;10.13;4.13;;;;;;;7.27;100.00;98294.29;4993259;56;1136438;-75
2024/01/04 10:09:35;;;;;;;2.90;2.40;;;;;;;7.28;100.00;98293.31;4984408;56;1139006;-74
2024/01/04 10:14:40;;;;;;;2.70;1.47;;;;;;;7.32;100.00;98295.16;4924454;56;1136654;-77
2024/01/04 10:19:46;;;;;;;6.47;2.60;;;;;;;7.33;100.00;98292.34;4986593;56;1136808;-76
2024/01/04 10:24:54;;;;;;;8.40;3.80;;;;;;;7.31;100.00;98296.95;4931539;56;1136392;-80
2024/01/04 10:30:07;;;;;;;2.35;1.70;;;;;;;7.25;100.00;98300.19;4946018;57;1136786;-75
2024/01/04 10:35:12;;;;;;;7.73;3.17;;;;;;;7.23;100.00;98311.34;4978474;56;1136752;-75
2024/01/04 10:40:19;;;;;;;3.27;1.47;;;;;;;7.22;100.00;98307.05;4993811;55;1136692;-72
2024/01/04 10:45:29;;;;;;;3.15;1.10;;;;;;;7.22;100.00;98313.62;4929029;57;1136605;-80
2024/01/04 10:50:37;;;;;;;1.93;1.33;;;;;;;7.24;100.00;98314.31;4969010;56;1136829;-79
2024/01/04 10:55:44;;;;;;;3.80;0.50;;;;;;;7.23;100.00;98311.83;4887413;57;1136644;-77
2024/01/04 11:00:50;;;;;;;0.70;0.63;;;;;;;7.06;100.00;98338.45;4929338;57;1134343;-81
2024/01/04 11:05:59;;;;;;;0.57;0.57;;;;;;;6.68;100.00;98325.94;5001862;56;1134710;-80
2024/01/04 11:11:06;;;;;;;1.27;0.80;;;;;;;6.47;100.00;98332.41;4958673;56;1134447;-80
2024/01/04 11:16:40;;;;;;;0.40;0.40;;;;;;;6.29;100.00;98331.87;4886503;56;1134663;-76
2024/01/04 11:22:24;;;;;;;1.85;1.15;;;;;;;6.18;100.00;98340.44;4934538;56;1134758;-77
2024/01/04 11:27:31;;;;;;;1.30;0.70;;;;;;;6.14;100.00;98344.30;4980235;55;1134603;-78
2024/01/04 11:32:37;;;;;;;0.40;0.40;;;;;;;6.08;100.00;98334.41;4991499;56;1134728;-75
2024/01/04 11:37:45;;;;;;;0.37;0.37;;;;;;;6.04;100.00;98340.91;4969222;57;1134472;-75
2024/01/04 11:42:50;;;;;;;0.30;0.30;;;;;;;5.95;100.00;98349.99;4926047;56;1134750;-77
2024/01/04 11:47:56;;;;;;;1.97;0.90;;;;;;;5.85;100.00;98355.70;4930867;56;1134536;-78
2024/01/04 11:53:06;;;;;;;0.60;0.60;;;;;;;5.76;100.00;98372.30;4979682;54;1134840;-77
2024/01/04 11:58:15;;;;;;;2.87;1.60;;;;;;;5.68;100.00;98360.84;4961067;56;1134527;-75
2024/01/04 12:03:22;;;;;;;1.45;0.65;;;;;;;5.62;100.00;98364.39;4983564;55;1134813;-76
2024/01/04 12:08:32;;;;;;;0.67;0.63;;;;;;;5.62;100.00;98363.56;5034042;56;1134700;-75
2024/01/04 12:13:37;;;;;;;0.80;0.80;;;;;;;5.66;100.00;98374.09;5020852;57;1134783;-76
2024/01/04 12:18:45;;;;;;;12.03;2.43;;;;;;;6.15;100.00;98367.78;4871350;58;1134233;-77
2024/01/04 12:23:52;;;;;;;0.30;0.30;;;;;;;6.63;100.00;98375.45;4882882;57;1136938;-74
2024/01/04 12:28:59;;;;;;;2.00;1.00;;;;;;;6.51;100.00;98370.55;4897795;57;1134756;-72
2024/01/04 12:34:05;;;;;;;0.57;0.53;;;;;;;6.24;100.00;98396.30;5025233;55;1134465;-78
2024/01/04 12:39:14;;;;;;;0.40;0.40;;;;;;;5.97;100.00;98400.98;5084710;56;1134425;-77
2024/01/04 12:44:21;;;;;;;0.67;0.60;;;;;;;5.76;100.00;98403.77;5056277;56;1134844;-78
2024/01/04 12:49:27;;;;;;;0.40;0.40;;;;;;;5.60;100.00;98420.55;5042584;55;1134677;-80
2024/01/04 12:54:32;;;;;;;0.43;0.43;;;;;;;5.44;100.00;98418.97;5064704;56;1134685;-78
2024/01/04 12:59:38;;;;;;;0.43;0.43;;;;;;;5.32;100.00;98423.53;4967850;56;1134620;-84
2024/01/04 13:04:43;;;;;;;0.67;0.67;;;;;;;5.22;100.00;98430.53;4989957;55;1134503;-78
2024/01/04 13:09:49;;;;;;;1.33;0.60;;;;;;;5.07;100.00;98433.20;4998140;56;1134711;-82
2024/01/04 13:14:56;;;;;;;0.40;0.40;;;;;;;5.02;100.00;98437.55;4933570;56;1134542;-78
2024/01/04 13:20:08;;;;;;;0.40;0.40;;;;;;;4.95;100.00;98439.04;4968820;55;1134797;-78
2024/01/04 13:25:10;;;;;;;0.40;0.40;;;;;;;4.90;100.00;98434.20;5100156;56;1134711;-85
2024/01/04 13:30:16;;;;;;;0.50;0.50;;;;;;;4.84;100.00;98452.25;5055842;55;1134728;-83
2024/01/04 13:35:21;;;;;;;0.80;0.80;;;;;;;4.79;100.00;98460.98;5071184;55;1134696;-79
2024/01/04 13:40:27;;;;;;;1.50;1.20;;;;;;;4.78;100.00;98462.77;5061284;55;1134539;-79
2024/01/04 13:45:33;;;;;;;2.27;0.83;;;;;;;4.72;100.00;98461.18;4991794;54;1134675;-77
2024/01/04 13:50:38;;;;;;;0.70;0.70;;;;;;;4.63;100.00;98471.12;4979450;55;1134699;-79
2024/01/04 13:55:44;;;;;;;1.03;0.73;;;;;;;4.52;100.00;98474.19;4981956;56;1134776;-80
2024/01/04 14:00:49;;;;;;;1.35;0.70;;;;;;;4.43;100.00;98479.39;5004153;57;1134440;-79
2024/01/04 14:05:55;;;;;;;1.80;0.47;;;;;;;4.32;100.00;98488.59;4951563;57;1134729;-79
2024/01/04 14:11:00;;;;;;;1.23;0.90;;;;;;;4.22;100.00;98499.84;4869576;57;1134419;-79
2024/01/04 14:16:07;;;;;;;1.53;1.13;;;;;;;4.11;100.00;98518.72;4936378;56;1134699;-84
2024/01/04 14:21:12;;;;;;;0.70;0.70;;;;;;;4.01;100.00;98517.80;4880314;57;1134598;-82
2024/01/04 14:26:18;;;;;;;0.50;0.50;;;;;;;3.93;100.00;98527.59;5018671;57;1134737;-83
2024/01/04 14:31:23;;;;;;;1.12;0.80;;;;;;;3.81;100.00;98538.59;4819278;57;1134450;-78
2024/01/04 14:36:29;;;;;;;0.70;0.70;;;;;;;3.75;100.00;98545.61;4870831;57;1134706;-77
2024/01/04 14:41:34;;;;;;;0.60;0.60;;;;;;;3.74;100.00;98558.33;4831376;57;1134531;-80
2024/01/04 14:46:40;;;;;;;1.67;1.47;;;;;;;3.72;100.00;98569.38;4754584;58;1134603;-83
2024/01/04 14:51:46;;;;;;;0.80;0.80;;;;;;;3.70;100.00;98583.05;4855085;58;1134560;-83
2024/01/04 14:56:52;;;;;;;2.90;1.23;;;;;;;3.66;100.00;98576.43;4807109;57;1134765;-79
2024/01/04 15:01:57;;;;;;;2.50;1.47;;;;;;;3.60;100.00;98583.92;4977359;56;1134792;-85
2024/01/04 15:07:03;;;;;;;1.13;0.60;;;;;;;3.56;100.00;98588.55;5015277;56;1134812;-77
2024/01/04 15:12:08;;;;;;;0.60;0.60;;;;;;;3.48;100.00;98594.88;4988492;55;1134633;-79
2024/01/04 15:17:14;;;;;;;0.78;0.78;;;;;;;3.47;100.00;98603.67;4971136;55;1134719;-81
2024/01/04 15:22:20;;;;;;;0.40;0.40;;;;;;;3.34;100.00;98610.81;4996693;56;1135471;-78
2024/01/04 15:27:26;;;;;;;0.70;0.70;;;;;;;3.23;100.00;98615.55;5021374;57;1134701;-80
2024/01/04 15:32:31;;;;;;;1.63;0.60;;;;;;;3.16;100.00;98626.97;4984747;55;1134564;-77
2024/01/04 15:37:37;;;;;;;0.83;0.80;;;;;;;3.09;100.00;98634.08;4960898;57;1134504;-78
2024/01/04 15:42:42;;;;;;;0.60;0.50;;;;;;;3.11;100.00;98643.45;5033517;56;1134553;-79
2024/01/04 15:47:48;;;;;;;1.20;1.07;;;;;;;3.10;100.00;98651.41;4961345;56;1134763;-85
2024/01/04 15:52:54;;;;;;;1.23;0.70;;;;;;;3.06;100.00;98657.33;4955943;57;1134482;-78
2024/01/04 15:57:59;;;;;;;0.97;0.80;;;;;;;3.02;100.00;98670.77;4970180;57;1134367;-78
2024/01/04 16:03:05;;;;;;;1.33;0.80;;;;;;;2.94;100.00;98673.94;4998622;56;1134304;-80
2024/01/04 16:08:10;;;;;;;0.98;0.98;;;;;;;2.91;100.00;98678.55;5074932;55;1134843;-79
2024/01/04 16:13:17;;;;;;;3.62;0.70;;;;;;;2.87;100.00;98688.42;5080452;55;1134787;-79
2024/01/04 16:18:25;;;;;;;1.25;0.90;;;;;;;2.85;100.00;98699.45;5015399;56;1134443;-79
2024/01/04 16:23:30;;;;;;;1.17;0.80;;;;;;;2.83;100.00;98701.34;4928300;56;1134558;-79
2024/01/04 16:28:39;;;;;;;0.93;0.93;;;;;;;2.82;100.00;98708.34;4900107;57;1135002;-77
2024/01/04 16:33:47;;;;;;;0.80;0.80;;;;;;;2.77;100.00;98716.14;4954441;55;1134571;-78
2024/01/04 16:38:53;;;;;;;1.50;0.90;;;;;;;2.77;100.00;98729.20;4956148;55;1134770;-77
2024/01/04 16:43:59;;;;;;;2.23;1.60;;;;;;;2.73;100.00;98742.97;4971286;56;1134697;-80
2024/01/04 16:49:05;;;;;;;6.90;3.73;;;;;;;2.66;100.00;98772.23;4989962;55;1134868;-75
2024/01/04 16:54:10;;;;;;;11.57;6.80;;;;;;;2.30;100.00;98813.06;4998922;54;1134587;-79
2024/01/04 16:59:16;;;;;;;4.50;2.10;;;;;;;1.97;100.00;98837.15;5009997;56;1136552;-77
2024/01/04 17:04:22;;;;;;;7.17;3.07;;;;;;;1.59;100.00;98866.28;5021409;55;1231656;-80
2024/01/04 17:09:27;;;;;;;4.90;3.83;;;;;;;1.30;100.00;98900.77;5072644;55;1134915;-80
2024/01/04 17:14:33;;;;;;;8.83;5.28;;;;;;;1.07;100.00;98930.89;5022870;56;1134777;-79
2024/01/04 17:19:38;;;;;;;17.23;6.90;;;;;;;0.88;100.00;98961.19;5029983;55;1134601;-82
2024/01/04 17:24:44;;;;;;;12.30;4.37;;;;;;;0.77;100.00;98993.52;5000101;56;1136790;-82
2024/01/04 17:29:49;;;;;;;7.20;4.30;;;;;;;0.57;100.00;99011.68;5025866;55;1136859;-81
2024/01/04 17:34:55;;;;;;;8.10;4.30;;;;;;;0.45;100.00;99022.83;4991930;55;1134416;-79
2024/01/04 17:40:00;;;;;;;7.63;4.73;;;;;;;0.31;100.00;99045.73;5040415;55;1134442;-80
2024/01/04 17:45:08;;;;;;;7.47;4.23;;;;;;;0.31;100.00;99065.23;5044371;56;1134602;-82
2024/01/04 17:50:14;;;;;;;13.27;6.00;;;;;;;0.30;100.00;99096.09;4962650;56;1134556;-81
2024/01/04 17:55:20;;;;;;;7.27;3.73;;;;;;;0.23;100.00;99119.92;4944438;56;1136566;-79
2024/01/04 18:00:26;;;;;;;3.46;2.50;;;;;;;0.19;100.00;99156.11;4981908;55;1134709;-80
2024/01/04 18:05:31;;;;;;;5.07;1.87;;;;;;;0.13;100.00;99171.62;5075018;54;1134557;-79
2024/01/04 18:10:37;;;;;;;3.53;2.77;;;;;;;0.00;100.00;99186.23;5089143;55;1134583;-80
2024/01/04 18:15:42;;;;;;;9.13;5.30;;;;;;;0.04;100.00;99207.66;5015215;56;1134783;-79
2024/01/04 18:20:48;;;;;;;6.27;3.93;;;;;;;0.02;100.00;99225.94;5021153;56;1134654;-79
2024/01/04 18:25:55;;;;;;;5.33;3.33;;;;;;;-0.04;100.00;99241.89;5017053;56;1134443;-79
2024/01/04 18:31:00;;;;;;;5.10;3.57;;;;;;;0.02;100.00;99258.43;4986911;55;1136752;-79
2024/01/04 18:36:12;;;;;;;3.40;2.17;;;;;;;0.04;100.00;99272.64;5030829;55;1134729;-79
2024/01/04 18:41:14;;;;;;;3.17;2.83;;;;;;;-0.01;100.00;99283.31;5008679;56;1134584;-79
2024/01/04 18:46:19;;;;;;;7.70;3.47;;;;;;;-0.04;100.00;99300.36;4997823;56;1137531;-79
2024/01/04 18:51:25;;;;;;;8.15;4.00;;;;;;;-0.07;100.00;99311.76;4984592;56;1136823;-78
2024/01/04 18:56:31;;;;;;;4.60;3.10;;;;;;;-0.10;100.00;99326.20;5027420;56;1136446;-78
2024/01/04 19:01:36;;;;;;;6.97;3.80;;;;;;;-0.13;100.00;99336.76;5014879;56;1136404;-79
2024/01/04 19:06:42;;;;;;;10.30;4.70;;;;;;;-0.12;100.00;99348.83;4996510;55;1136849;-79
2024/01/04 19:11:47;;;;;;;6.40;4.93;;;;;;;-0.08;100.00;99355.55;5013258;56;1138744;-79
2024/01/04 19:16:53;;;;;;;17.83;10.23;;;;;;;-0.07;100.00;99368.09;4984170;56;1136493;-78
2024/01/04 19:21:58;;;;;;;15.47;7.90;;;;;;;-0.08;100.00;99376.80;4986549;56;1140526;-79
2024/01/04 19:27:04;;;;;;;15.67;10.53;;;;;;;-0.05;100.00;99393.55;4993909;57;1139478;-77
2024/01/04 19:32:10;;;;;;;10.50;6.87;;;;;;;-0.03;100.00;99403.41;5015775;56;1140900;-82
2024/01/04 19:37:16;;;;;;;8.13;4.10;;;;;;;-0.06;100.00;99408.30;5000478;55;1138729;-81
2024/01/04 19:42:21;;;;;;;10.17;5.93;;;;;;;-0.06;100.00;99417.84;4998384;55;1145403;-81
2024/01/04 19:47:27;;;;;;;5.90;3.73;;;;;;;-0.08;100.00;99433.98;5036017;56;1138653;-80
2024/01/04 19:52:32;;;;;;;12.07;6.27;;;;;;;-0.10;100.00;99439.25;5004776;56;1136888;-79
2024/01/04 19:57:38;;;;;;;18.17;8.23;;;;;;;-0.16;100.00;99454.33;5017000;55;1138840;-83
2024/01/04 20:02:44;;;;;;;6.87;2.87;;;;;;;-0.10;100.00;99479.98;5036265;55;1138854;-82
2024/01/04 20:07:50;;;;;;;15.90;10.10;;;;;;;-0.14;100.00;99484.95;4899610;58;1136596;-80
2024/01/04 20:12:55;;;;;;;7.63;3.50;;;;;;;-0.11;100.00;99492.59;4931472;57;1140514;-81
2024/01/04 20:18:01;;;;;;;9.63;4.83;;;;;;;-0.08;100.00;99499.80;4997259;56;1136459;-77
2024/01/04 20:23:06;;;;;;;7.33;3.23;;;;;;;-0.08;100.00;99515.38;4980365;56;1136437;-79
2024/01/04 20:28:12;;;;;;;3.67;3.00;;;;;;;-0.09;100.00;99527.15;4953833;56;1136851;-78
2024/01/04 20:33:17;;;;;;;4.67;2.53;;;;;;;-0.13;100.00;99534.25;4934787;57;1136560;-77
2024/01/04 20:38:23;;;;;;;4.37;2.50;;;;;;;-0.13;100.00;99545.10;4964587;57;1137119;-82
2024/01/04 20:43:30;;;;;;;6.37;2.87;;;;;;;-0.12;100.00;99563.68;4953051;55;1139598;-79
2024/01/04 20:48:38;;;;;;;28.42;14.13;;;;;;;-0.16;100.00;99563.47;4974833;56;1136856;-80
2024/01/04 20:53:43;;;;;;;60.87;29.47;;;;;;;-0.18;100.00;99586.93;4961778;56;1141175;-80
2024/01/04 20:58:49;;;;;;;3.33;2.03;;;;;;;-0.19;100.00;99594.34;4968915;56;1140716;-80
2024/01/04 21:03:55;;;;;;;18.47;12.47;;;;;;;-0.19;100.00;99604.73;5007584;56;1136827;-82
2024/01/04 21:09:01;;;;;;;54.03;32.43;;;;;;;-0.19;100.00;99605.19;5000145;56;1141119;-81
2024/01/04 21:14:07;;;;;;;41.80;20.20;;;;;;;-0.18;100.00;99602.98;5011628;56;1140642;-81
2024/01/04 21:19:13;;;;;;;16.93;9.33;;;;;;;-0.18;100.00;99623.30;5032355;56;1141138;-83
2024/01/04 21:24:19;;;;;;;17.43;9.27;;;;;;;-0.22;100.00;99631.31;4989260;56;1139153;-83
2024/01/04 21:29:24;;;;;;;17.10;5.27;;;;;;;-0.32;100.00;99646.51;4979197;56;1138532;-83
2024/01/04 21:34:30;;;;;;;24.05;6.80;;;;;;;-0.31;100.00;99662.48;5019135;56;1140233;-81
2024/01/04 21:39:36;;;;;;;18.33;4.07;;;;;;;-0.29;100.00;99671.48;4985981;56;1138922;-81
2024/01/04 21:44:42;;;;;;;32.08;8.68;;;;;;;-0.30;100.00;99668.48;4969812;56;1138904;-82
2024/01/04 21:49:47;;;;;;;12.10;3.90;;;;;;;-0.26;100.00;99694.72;4924200;56;1138852;-81
2024/01/04 21:54:53;;;;;;;27.40;5.33;;;;;;;-0.24;100.00;99699.39;4873603;56;1138768;-82
2024/01/04 22:00:01;;;;;;;12.47;2.60;;;;;;;-0.17;100.00;99695.16;4965198;56;1138706;-83
2024/01/04 22:05:10;;;;;;;3.40;1.80;;;;;;;-0.22;100.00;99714.46;4960683;57;1138933;-82
2024/01/04 22:10:18;;;;;;;8.47;3.20;;;;;;;-0.36;100.00;99722.89;4904501;55;1136576;-82
2024/01/04 22:15:24;;;;;;;3.30;1.97;;;;;;;-0.45;100.00;99718.09;4914108;57;1136754;-82
2024/01/04 22:20:30;;;;;;;6.20;2.60;;;;;;;-0.48;100.00;99725.59;5012876;56;1136638;-82
2024/01/04 22:25:36;;;;;;;5.90;2.92;;;;;;;-0.48;100.00;99735.98;5095762;55;1136516;-82
2024/01/04 22:30:41;;;;;;;10.97;4.87;;;;;;;-0.49;100.00;99735.59;5011922;57;1136471;-81
2024/01/04 22:35:49;;;;;;;4.50;2.90;;;;;;;-0.51;100.00;99738.72;5038553;55;1138754;-81
2024/01/04 22:40:54;;;;;;;10.37;4.33;;;;;;;-0.53;100.00;99736.64;4982424;55;1136823;-82
2024/01/04 22:46:06;;;;;;;13.17;4.23;;;;;;;-0.51;100.00;99734.82;5012459;57;1139060;-81
2024/01/04 22:51:09;;;;;;;15.13;5.37;;;;;;;-0.47;100.00;99748.52;5002653;57;1138730;-82
2024/01/04 22:56:14;;;;;;;17.20;5.37;;;;;;;-0.50;100.00;99765.53;5014620;57;1139123;-82
2024/01/04 23:01:20;;;;;;;12.50;4.87;;;;;;;-0.51;100.00;99759.95;4970435;57;1138775;-82
2024/01/04 23:06:26;;;;;;;9.13;4.20;;;;;;;-0.48;100.00;99761.96;4972060;56;1138641;-82
2024/01/04 23:11:32;;;;;;;5.83;3.33;;;;;;;-0.43;100.00;99772.13;5002607;57;1136634;-81
2024/01/04 23:16:38;;;;;;;4.97;2.07;;;;;;;-0.42;100.00;99787.64;4983906;57;1136585;-81
2024/01/04 23:21:43;;;;;;;10.65;3.75;;;;;;;-0.42;100.00;99787.64;5009512;56;1136681;-82